PWSweather.com
Personal Weather Stations
Station Observations

EmmenNL

Lat: 52.74388, Lon: 6.898477

Elevation: 49

Station Type: Davis Vantage Pro2 Plus

http://www.emmenzuidwest.nl

Latest ConditionsUpdated 2:32:13 AM GMT+01:01 Monday, Aug 20, 2018
Currently Today's Max Today's Min Today's Average
Temperature 65.1°F18.4°C 65.1°F18.4°C 64.2°F17.9°C 64.5°F18.1°C
Dew Point 63.3°F17.4°C 63.3°F17.4°C 62.8°F17.1°C 63.0°F17.2°C
Winds 2.2 mph SW3.5 kmh SW 2.2 mph -3.5 kmh - - 1.3 mph 2.1 kmh
Wind Gusts 2.0 mph3.2 kmh 3.1 mph5.0 kmh - -
Humidity 94% 95% 94% 95%
Pressure 30.02 in1016.6 mb 30.04 in1017.3 mb 30.02 in1016.6 mb -
Precipitation - 0.01 in0.3 mm - -
Hour Temp Dew Point Humidity Winds Wind Gusts Pressure Precip Precip Rate Daily Precip Total
02:32 AM 65.1°F18.4°C 63.3°F17.4°C 94% 2.2 mph SW3.5 kmh SW 2.0 mph3.2 kmh 30.02 in1016.6 mb - 0.00 in0.0 mm 0.01 in0.3 mm
02:27 AM 65.1°F18.4°C 63.3°F17.4°C 94% 2.0 mph SW3.2 kmh SW 1.1 mph1.8 kmh 30.02 in1016.6 mb - 0.00 in0.0 mm 0.01 in0.3 mm
02:22 AM 65.1°F18.4°C 63.3°F17.4°C 94% 0.4 mph SW0.6 kmh SW -- 30.02 in1016.6 mb - 0.00 in0.0 mm 0.01 in0.3 mm
02:17 AM 65.1°F18.4°C 63.3°F17.4°C 94% 0.7 mph SW1.1 kmh SW 3.1 mph5.0 kmh 30.02 in1016.6 mb - 0.00 in0.0 mm 0.01 in0.3 mm
02:12 AM 64.9°F18.3°C 63.1°F17.3°C 94% 1.8 mph WSW2.9 kmh WSW 3.1 mph5.0 kmh 30.02 in1016.6 mb - 0.00 in0.0 mm 0.01 in0.3 mm
02:07 AM 64.9°F18.3°C 63.1°F17.3°C 94% 1.3 mph SSW2.1 kmh SSW 2.0 mph3.2 kmh 30.02 in1016.6 mb - 0.00 in0.0 mm 0.01 in0.3 mm
02:02 AM 64.9°F18.3°C 63.1°F17.3°C 94% 1.3 mph SW2.1 kmh SW 3.1 mph5.0 kmh 30.02 in1016.6 mb - 0.00 in0.0 mm 0.01 in0.3 mm
01:57 AM 64.9°F18.3°C 63.1°F17.3°C 94% 1.1 mph SSW1.8 kmh SSW 2.0 mph3.2 kmh 30.02 in1016.6 mb - 0.00 in0.0 mm 0.01 in0.3 mm
01:52 AM 64.8°F18.2°C 63.0°F17.2°C 94% 2.0 mph SSW3.2 kmh SSW 3.1 mph5.0 kmh 30.02 in1016.6 mb - 0.00 in0.0 mm 0.01 in0.3 mm
01:47 AM 64.8°F18.2°C 63.0°F17.2°C 94% 1.6 mph S2.6 kmh S 1.1 mph1.8 kmh 30.02 in1016.6 mb - 0.00 in0.0 mm 0.01 in0.3 mm
01:42 AM 64.8°F18.2°C 63.0°F17.2°C 94% 1.3 mph S2.1 kmh S -- 30.02 in1016.6 mb - 0.00 in0.0 mm 0.01 in0.3 mm
01:37 AM 64.8°F18.2°C 63.0°F17.2°C 94% 1.3 mph SSW2.1 kmh SSW -- 30.03 in1016.9 mb - 0.00 in0.0 mm 0.01 in0.3 mm
01:32 AM 64.6°F18.1°C 62.8°F17.1°C 94% 1.6 mph S2.6 kmh S 1.1 mph1.8 kmh 30.02 in1016.6 mb - 0.00 in0.0 mm 0.01 in0.3 mm
01:27 AM 64.6°F18.1°C 62.8°F17.1°C 94% 1.1 mph S1.8 kmh S 1.1 mph1.8 kmh 30.02 in1016.6 mb - 0.00 in0.0 mm 0.01 in0.3 mm
01:22 AM 64.6°F18.1°C 63.1°F17.3°C 95% 1.1 mph S1.8 kmh S 1.1 mph1.8 kmh 30.02 in1016.6 mb - 0.00 in0.0 mm 0.01 in0.3 mm
01:17 AM 64.4°F18.0°C 63.0°F17.2°C 95% 1.1 mph S1.8 kmh S 2.0 mph3.2 kmh 30.02 in1016.6 mb - 0.00 in0.0 mm 0.01 in0.3 mm
01:12 AM 64.4°F18.0°C 63.0°F17.2°C 95% 1.3 mph S2.1 kmh S 1.1 mph1.8 kmh 30.03 in1016.9 mb - 0.00 in0.0 mm 0.01 in0.3 mm
01:07 AM 64.4°F18.0°C 63.0°F17.2°C 95% 0.9 mph S1.4 kmh S -- 30.03 in1016.9 mb - 0.00 in0.0 mm 0.01 in0.3 mm
01:02 AM 64.2°F17.9°C 62.8°F17.1°C 95% 1.1 mph SSE1.8 kmh SSE -- 30.03 in1016.9 mb - 0.00 in0.0 mm 0.01 in0.3 mm
12:57 AM 64.2°F17.9°C 62.8°F17.1°C 95% 0.9 mph SSE1.4 kmh SSE -- 30.03 in1016.9 mb - 0.00 in0.0 mm 0.01 in0.3 mm
12:52 AM 64.2°F17.9°C 62.8°F17.1°C 95% 1.3 mph SSW2.1 kmh SSW 3.1 mph5.0 kmh 30.03 in1016.9 mb - 0.00 in0.0 mm 0.01 in0.3 mm
12:47 AM 64.2°F17.9°C 62.8°F17.1°C 95% 0.9 mph SSW1.4 kmh SSW 2.0 mph3.2 kmh 30.03 in1016.9 mb - 0.00 in0.0 mm 0.01 in0.3 mm
12:42 AM 64.2°F17.9°C 62.8°F17.1°C 95% 1.6 mph SW2.6 kmh SW 1.1 mph1.8 kmh 30.03 in1016.9 mb - 0.00 in0.0 mm 0.01 in0.3 mm
12:37 AM 64.2°F17.9°C 62.8°F17.1°C 95% 2.0 mph SSW3.2 kmh SSW 1.1 mph1.8 kmh 30.03 in1016.9 mb - 0.00 in0.0 mm 0.01 in0.3 mm
12:32 AM 64.2°F17.9°C 62.8°F17.1°C 95% 1.6 mph SW2.6 kmh SW 1.1 mph1.8 kmh 30.04 in1017.3 mb - 0.00 in0.0 mm 0.01 in0.3 mm
12:27 AM 64.2°F17.9°C 62.8°F17.1°C 95% 0.4 mph SSW0.6 kmh SSW 1.1 mph1.8 kmh 30.04 in1017.3 mb - 0.00 in0.0 mm 0.01 in0.3 mm
12:22 AM 64.2°F17.9°C 62.8°F17.1°C 95% 0.4 mph SSW0.6 kmh SSW -- 30.04 in1017.3 mb - 0.00 in0.0 mm 0.01 in0.3 mm
12:17 AM 64.2°F17.9°C 62.8°F17.1°C 95% 1.8 mph SW2.9 kmh SW 2.0 mph3.2 kmh 30.04 in1017.3 mb - 0.00 in0.0 mm 0.01 in0.3 mm
12:12 AM 64.2°F17.9°C 62.8°F17.1°C 95% 1.6 mph SSW2.6 kmh SSW 1.1 mph1.8 kmh 30.04 in1017.3 mb - 0.00 in0.0 mm 0.01 in0.3 mm
12:07 AM 64.2°F17.9°C 62.8°F17.1°C 95% 1.3 mph SW2.1 kmh SW 1.1 mph1.8 kmh 30.04 in1017.3 mb - 0.00 in0.0 mm 0.01 in0.3 mm
12:02 AM 64.2°F17.9°C 62.8°F17.1°C 95% 2.2 mph SW3.5 kmh SW 2.0 mph3.2 kmh 30.04 in1017.3 mb - 0.00 in0.0 mm 0.01 in0.3 mm